createdAt,value
2017-08-16T00:00:43.322Z,1008.9
2017-08-16T00:01:45.781Z,1009
2017-08-16T00:02:48.599Z,1009
2017-08-16T00:03:51.052Z,1009
2017-08-16T00:04:53.499Z,1008.9
2017-08-16T00:05:55.957Z,1009
2017-08-16T00:06:58.402Z,1009
2017-08-16T00:08:00.866Z,1009
2017-08-16T00:09:03.671Z,1009
2017-08-16T00:10:06.148Z,1009
2017-08-16T00:11:08.949Z,1009
2017-08-16T00:12:11.750Z,1009
2017-08-16T00:13:14.197Z,1009.1
2017-08-16T00:14:16.658Z,1009.1
2017-08-16T00:15:19.117Z,1009.1
2017-08-16T00:16:21.916Z,1009.1
2017-08-16T00:17:24.355Z,1009.2
2017-08-16T00:18:26.816Z,1009.2
2017-08-16T00:19:29.615Z,1009.2
2017-08-16T00:20:32.406Z,1009.1
2017-08-16T00:21:34.862Z,1009.2
2017-08-16T00:22:37.325Z,1009.1
2017-08-16T00:23:39.788Z,1009.2
2017-08-16T00:24:42.314Z,1009.2
2017-08-16T00:25:44.759Z,1009.2
2017-08-16T00:26:47.214Z,1009.2
2017-08-16T00:27:49.676Z,1009.2
2017-08-16T00:28:52.130Z,1009.2
2017-08-16T00:29:54.588Z,1009.2
2017-08-16T00:30:57.385Z,1009.2
2017-08-16T00:31:59.823Z,1009.2
2017-08-16T00:33:02.633Z,1009.1
2017-08-16T00:34:05.082Z,1009
2017-08-16T00:35:07.888Z,1009.1
2017-08-16T00:36:10.689Z,1009.1
2017-08-16T00:37:13.826Z,1009.1
2017-08-16T00:38:16.612Z,1009.1
2017-08-16T00:39:19.087Z,1009.1
2017-08-16T00:40:21.541Z,1009.1
2017-08-16T00:41:23.989Z,1009.1
2017-08-16T00:42:27.120Z,1009.2
2017-08-16T00:43:29.584Z,1009.2
2017-08-16T00:44:32.400Z,1009.2
2017-08-16T00:45:35.200Z,1009.2
2017-08-16T00:46:37.665Z,1009.2
2017-08-16T00:47:40.119Z,1009.2
2017-08-16T00:48:43.610Z,1009.2
2017-08-16T00:49:46.407Z,1009.2
2017-08-16T00:50:48.840Z,1009.2
2017-08-16T00:51:51.645Z,1009.3
2017-08-16T00:52:54.106Z,1009.2
2017-08-16T00:53:56.915Z,1009.3
2017-08-16T00:54:59.373Z,1009.2
2017-08-16T00:56:02.491Z,1009.2
2017-08-16T00:57:05.633Z,1009.2
2017-08-16T00:58:08.437Z,1009.2
2017-08-16T00:59:10.899Z,1009.2
2017-08-16T01:00:13.695Z,1009.2
2017-08-16T01:01:16.158Z,1009.2
2017-08-16T01:02:18.946Z,1009.2
2017-08-16T01:03:21.778Z,1009.2
2017-08-16T01:04:24.232Z,1009.2
2017-08-16T01:05:26.671Z,1009.2
2017-08-16T01:06:29.129Z,1009.2
2017-08-16T01:07:31.594Z,1009.2
2017-08-16T01:08:34.053Z,1009.2
2017-08-16T01:09:36.851Z,1009.2
2017-08-16T01:10:39.322Z,1009.2
2017-08-16T01:11:42.459Z,1009.3
2017-08-16T01:12:44.916Z,1009.3
2017-08-16T01:13:48.106Z,1009.3
2017-08-16T01:14:50.541Z,1009.4
2017-08-16T01:15:53.332Z,1009.4
2017-08-16T01:16:55.803Z,1009.4
2017-08-16T01:17:58.244Z,1009.4
2017-08-16T01:19:00.703Z,1009.4
2017-08-16T01:20:04.190Z,1009.4
2017-08-16T01:21:06.646Z,1009.5
2017-08-16T01:22:09.110Z,1009.5
2017-08-16T01:23:11.560Z,1009.4
2017-08-16T01:24:14.005Z,1009.4
2017-08-16T01:25:16.809Z,1009.4
2017-08-16T01:26:19.262Z,1009.4
2017-08-16T01:27:21.724Z,1009.3
2017-08-16T01:28:24.191Z,1009.3
2017-08-16T01:29:26.986Z,1009.3
2017-08-16T01:30:29.775Z,1009.3
2017-08-16T01:31:32.256Z,1009.3
2017-08-16T01:32:35.051Z,1009.3
2017-08-16T01:33:37.513Z,1009.3
2017-08-16T01:34:39.968Z,1009.3
2017-08-16T01:35:42.765Z,1009.2
2017-08-16T01:36:45.568Z,1009.3
2017-08-16T01:37:48.367Z,1009.3
2017-08-16T01:38:51.143Z,1009.3
2017-08-16T01:39:53.945Z,1009.3
2017-08-16T01:40:56.414Z,1009.4
2017-08-16T01:41:58.868Z,1009.4
2017-08-16T01:43:01.319Z,1009.4
2017-08-16T01:44:04.113Z,1009.4
2017-08-16T01:45:07.246Z,1009.4
2017-08-16T01:46:10.058Z,1009.5
2017-08-16T01:47:12.852Z,1009.5
2017-08-16T01:48:15.657Z,1009.5
2017-08-16T01:49:18.100Z,1009.5
2017-08-16T01:50:20.566Z,1009.5
2017-08-16T01:51:23.013Z,1009.4
2017-08-16T01:52:25.468Z,1009.4
2017-08-16T01:53:28.953Z,1009.5
2017-08-16T01:54:31.761Z,1009.4
2017-08-16T01:55:34.217Z,1009.4
2017-08-16T01:56:36.677Z,1009.4
2017-08-16T01:57:39.125Z,1009.4
2017-08-16T01:58:41.581Z,1009.4
2017-08-16T01:59:44.381Z,1009.4
2017-08-16T02:00:46.838Z,1009.5
2017-08-16T02:01:49.299Z,1009.4
2017-08-16T02:02:52.778Z,1009.4
2017-08-16T02:03:55.233Z,1009.5
2017-08-16T02:04:57.706Z,1009.5
2017-08-16T02:06:00.159Z,1009.4
2017-08-16T02:07:02.617Z,1009.4
2017-08-16T02:08:05.755Z,1009.4
2017-08-16T02:09:08.899Z,1009.4
2017-08-16T02:10:12.046Z,1009.4
2017-08-16T02:11:14.495Z,1009.5
2017-08-16T02:12:16.964Z,1009.4
2017-08-16T02:13:19.439Z,1009.4
2017-08-16T02:14:21.887Z,1009.4
2017-08-16T02:15:24.348Z,1009.5
2017-08-16T02:16:26.810Z,1009.4
2017-08-16T02:17:29.276Z,1009.5
2017-08-16T02:18:32.100Z,1009.5
2017-08-16T02:19:34.905Z,1009.5
2017-08-16T02:20:37.705Z,1009.5
2017-08-16T02:21:40.517Z,1009.5
2017-08-16T02:22:43.316Z,1009.6
2017-08-16T02:23:45.785Z,1009.5
2017-08-16T02:24:48.243Z,1009.6
2017-08-16T02:25:51.061Z,1009.5
2017-08-16T02:26:53.522Z,1009.7
2017-08-16T02:27:55.978Z,1009.6
2017-08-16T02:28:58.429Z,1009.6
2017-08-16T02:30:01.228Z,1009.5
2017-08-16T02:31:04.745Z,1009.6
2017-08-16T02:32:07.890Z,1009.5
2017-08-16T02:33:10.369Z,1009.5
2017-08-16T02:34:13.187Z,1009.5
2017-08-16T02:35:16.327Z,1009.5
2017-08-16T02:36:19.136Z,1009.5
2017-08-16T02:37:21.968Z,1009.5
2017-08-16T02:38:24.760Z,1009.5
2017-08-16T02:39:27.198Z,1009.5
2017-08-16T02:40:29.682Z,1009.5
2017-08-16T02:41:32.128Z,1009.5
2017-08-16T02:42:35.278Z,1009.5
2017-08-16T02:43:38.435Z,1009.5
2017-08-16T02:44:41.237Z,1009.5
2017-08-16T02:45:44.024Z,1009.5
2017-08-16T02:46:46.496Z,1009.5
2017-08-16T02:47:48.938Z,1009.4
2017-08-16T02:48:51.757Z,1009.5
2017-08-16T02:49:54.226Z,1009.5
2017-08-16T02:50:56.681Z,1009.5
2017-08-16T02:51:59.142Z,1009.5
2017-08-16T02:53:01.606Z,1009.5
2017-08-16T02:54:04.404Z,1009.5
2017-08-16T02:55:07.244Z,1009.5
2017-08-16T02:56:09.695Z,1009.5
2017-08-16T02:57:12.159Z,1009.5
2017-08-16T02:58:14.990Z,1009.5
2017-08-16T02:59:17.789Z,1009.6
2017-08-16T03:00:20.573Z,1009.6
2017-08-16T03:01:23.043Z,1009.6
2017-08-16T03:02:25.819Z,1009.6
2017-08-16T03:03:28.277Z,1009.6
2017-08-16T03:04:30.743Z,1009.6
2017-08-16T03:05:33.193Z,1009.6
2017-08-16T03:06:35.652Z,1009.6
2017-08-16T03:07:38.109Z,1009.6
2017-08-16T03:08:40.575Z,1009.6
2017-08-16T03:09:43.010Z,1009.6
2017-08-16T03:10:45.471Z,1009.7
2017-08-16T03:11:48.274Z,1009.7
2017-08-16T03:12:50.732Z,1009.6
2017-08-16T03:13:53.180Z,1009.6
2017-08-16T03:14:55.628Z,1009.6
2017-08-16T03:15:58.084Z,1009.6
2017-08-16T03:17:00.649Z,1009.6
2017-08-16T03:18:03.796Z,1009.7
2017-08-16T03:19:06.239Z,1009.6
2017-08-16T03:20:09.043Z,1009.6
2017-08-16T03:21:11.862Z,1009.7
2017-08-16T03:22:14.654Z,1009.7
2017-08-16T03:23:17.100Z,1009.8
2017-08-16T03:24:20.235Z,1009.8
2017-08-16T03:25:23.042Z,1009.8
2017-08-16T03:26:25.499Z,1009.7
2017-08-16T03:27:28.288Z,1009.8
2017-08-16T03:28:30.735Z,1009.8
2017-08-16T03:29:33.524Z,1009.8
2017-08-16T03:30:35.979Z,1009.8
2017-08-16T03:31:38.455Z,1009.8
2017-08-16T03:32:41.245Z,1009.8
2017-08-16T03:33:44.042Z,1009.8
2017-08-16T03:34:47.203Z,1009.8
2017-08-16T03:35:49.670Z,1009.8
2017-08-16T03:36:52.124Z,1009.9
2017-08-16T03:37:54.911Z,1009.9
2017-08-16T03:38:58.054Z,1009.9
2017-08-16T03:40:00.868Z,1010
2017-08-16T03:41:04.009Z,1010
2017-08-16T03:42:06.468Z,1009.9
2017-08-16T03:43:09.267Z,1010
2017-08-16T03:44:12.065Z,1010
2017-08-16T03:45:15.201Z,1010
2017-08-16T03:46:17.668Z,1010
2017-08-16T03:47:20.127Z,1010
2017-08-16T03:48:22.924Z,1010
2017-08-16T03:49:25.375Z,1010
2017-08-16T03:50:27.834Z,1010
2017-08-16T03:51:30.612Z,1010
2017-08-16T03:52:33.077Z,1010.1
2017-08-16T03:53:36.206Z,1010.1
2017-08-16T03:54:39.351Z,1010.2
2017-08-16T03:55:41.806Z,1010.2
2017-08-16T03:56:44.593Z,1010.2
2017-08-16T03:57:47.047Z,1010.2
2017-08-16T03:58:49.498Z,1010.2
2017-08-16T03:59:51.944Z,1010.2
2017-08-16T04:00:54.421Z,1010.2
2017-08-16T04:01:56.861Z,1010.3
2017-08-16T04:02:59.313Z,1010.2
2017-08-16T04:04:02.460Z,1010.1
2017-08-16T04:05:05.257Z,1010.2
2017-08-16T04:06:08.410Z,1010.2
2017-08-16T04:07:10.861Z,1010.3
2017-08-16T04:08:13.314Z,1010.3
2017-08-16T04:09:16.088Z,1010.3
2017-08-16T04:10:18.557Z,1010.3
2017-08-16T04:11:21.020Z,1010.4
2017-08-16T04:12:23.486Z,1010.3
2017-08-16T04:13:26.286Z,1010.3
2017-08-16T04:14:28.761Z,1010.3
2017-08-16T04:15:31.216Z,1010.3
2017-08-16T04:16:33.694Z,1010.3
2017-08-16T04:17:36.138Z,1010.4
2017-08-16T04:18:38.935Z,1010.4
2017-08-16T04:19:41.762Z,1010.4
2017-08-16T04:20:44.218Z,1010.4
2017-08-16T04:21:47.350Z,1010.5
2017-08-16T04:22:50.136Z,1010.5
2017-08-16T04:23:52.576Z,1010.5
2017-08-16T04:24:55.030Z,1010.6
2017-08-16T04:25:57.487Z,1010.6
2017-08-16T04:26:59.949Z,1010.6
2017-08-16T04:28:02.733Z,1010.6
2017-08-16T04:29:05.194Z,1010.6
2017-08-16T04:30:07.652Z,1010.5
2017-08-16T04:31:10.100Z,1010.5
2017-08-16T04:32:12.907Z,1010.5
2017-08-16T04:33:15.362Z,1010.6
2017-08-16T04:34:18.152Z,1010.6
2017-08-16T04:35:20.967Z,1010.6
2017-08-16T04:36:23.427Z,1010.7
2017-08-16T04:37:26.240Z,1010.6
2017-08-16T04:38:28.708Z,1010.7
2017-08-16T04:39:31.518Z,1010.7
2017-08-16T04:40:33.971Z,1010.7
2017-08-16T04:41:36.757Z,1010.7
2017-08-16T04:42:39.585Z,1010.7
2017-08-16T04:43:42.370Z,1010.7
2017-08-16T04:44:45.166Z,1010.7
2017-08-16T04:45:47.630Z,1010.8
2017-08-16T04:46:50.085Z,1010.8
2017-08-16T04:47:52.883Z,1010.8
2017-08-16T04:48:55.688Z,1010.8
2017-08-16T04:49:58.152Z,1010.8
2017-08-16T04:51:00.957Z,1010.8
2017-08-16T04:52:04.096Z,1010.8
2017-08-16T04:53:06.557Z,1010.8
2017-08-16T04:54:09.049Z,1010.9
2017-08-16T04:55:12.195Z,1010.9
2017-08-16T04:56:15.323Z,1010.9
2017-08-16T04:57:18.468Z,1011
2017-08-16T04:58:21.293Z,1011
2017-08-16T04:59:23.738Z,1011
2017-08-16T05:00:26.205Z,1011
2017-08-16T05:01:28.686Z,1011.1
2017-08-16T05:02:31.131Z,1011.1
2017-08-16T05:03:33.593Z,1011.1
2017-08-16T05:04:36.049Z,1011.2
2017-08-16T05:05:38.508Z,1011.2
2017-08-16T05:06:40.994Z,1011.2
2017-08-16T05:07:43.436Z,1011.2
2017-08-16T05:08:46.249Z,1011.2
2017-08-16T05:09:49.041Z,1011.2
2017-08-16T05:10:51.851Z,1011.2
2017-08-16T05:11:54.311Z,1011.2
2017-08-16T05:12:57.105Z,1011.2
2017-08-16T05:13:59.893Z,1011.2
2017-08-16T05:15:03.403Z,1011.3
2017-08-16T05:16:06.176Z,1011.3
2017-08-16T05:17:08.648Z,1011.4
2017-08-16T05:18:11.102Z,1011.4
2017-08-16T05:19:13.561Z,1011.4
2017-08-16T05:20:16.018Z,1011.5
2017-08-16T05:21:18.814Z,1011.5
2017-08-16T05:22:21.612Z,1011.5
2017-08-16T05:23:24.784Z,1011.5
2017-08-16T05:24:27.930Z,1011.6
2017-08-16T05:25:30.365Z,1011.6
2017-08-16T05:26:32.826Z,1011.6
2017-08-16T05:27:35.453Z,1011.6
2017-08-16T05:28:37.920Z,1011.6
2017-08-16T05:29:40.711Z,1011.6
2017-08-16T05:30:43.166Z,1011.6
2017-08-16T05:31:45.616Z,1011.6
2017-08-16T05:32:48.082Z,1011.6
2017-08-16T05:33:50.532Z,1011.7
2017-08-16T05:34:52.994Z,1011.7
2017-08-16T05:35:55.785Z,1011.7
2017-08-16T05:36:58.238Z,1011.7
2017-08-16T05:38:01.031Z,1011.8
2017-08-16T05:39:03.830Z,1011.7
2017-08-16T05:40:06.656Z,1011.7
2017-08-16T05:41:09.802Z,1011.7
2017-08-16T05:42:12.254Z,1011.7
2017-08-16T05:43:14.719Z,1011.8
2017-08-16T05:44:17.176Z,1011.7
2017-08-16T05:45:19.637Z,1011.7
2017-08-16T05:46:22.097Z,1011.7
2017-08-16T05:47:24.539Z,1011.7
2017-08-16T05:48:26.988Z,1011.7
2017-08-16T05:49:29.470Z,1011.7
2017-08-16T05:50:31.916Z,1011.7
2017-08-16T05:51:34.375Z,1011.8
2017-08-16T05:52:37.166Z,1011.8
2017-08-16T05:53:39.631Z,1011.8
2017-08-16T05:54:42.088Z,1011.9
2017-08-16T05:55:44.873Z,1011.9
2017-08-16T05:56:48.334Z,1011.9
2017-08-16T05:57:50.802Z,1011.9
2017-08-16T05:58:53.263Z,1011.9
2017-08-16T05:59:56.049Z,1011.9
2017-08-16T06:00:58.866Z,1011.9
2017-08-16T06:02:01.323Z,1012
2017-08-16T06:03:04.804Z,1012
2017-08-16T06:04:08.285Z,1012
2017-08-16T06:05:10.746Z,1012
2017-08-16T06:06:13.207Z,1012
2017-08-16T06:07:16.355Z,1012
2017-08-16T06:08:18.854Z,1012
2017-08-16T06:09:21.645Z,1012
2017-08-16T06:10:24.440Z,1012.1
2017-08-16T06:11:26.900Z,1012
2017-08-16T06:12:29.707Z,1012.1
2017-08-16T06:13:32.483Z,1012.1
2017-08-16T06:14:34.953Z,1012.1
2017-08-16T06:15:37.743Z,1012.1
2017-08-16T06:16:40.240Z,1012
2017-08-16T06:17:43.034Z,1012
2017-08-16T06:18:46.177Z,1012
2017-08-16T06:19:48.657Z,1012.1
2017-08-16T06:20:51.802Z,1012.2
2017-08-16T06:21:54.254Z,1012.2
2017-08-16T06:22:57.043Z,1012.3
2017-08-16T06:23:59.516Z,1012.3
2017-08-16T06:25:02.341Z,1012.3
2017-08-16T06:26:04.831Z,1012.3
2017-08-16T06:27:07.296Z,1012.4
2017-08-16T06:28:09.749Z,1012.4
2017-08-16T06:29:12.217Z,1012.4
2017-08-16T06:30:14.674Z,1012.4
2017-08-16T06:31:17.131Z,1012.4
2017-08-16T06:32:20.003Z,1012.4
2017-08-16T06:33:22.802Z,1012.3
2017-08-16T06:34:25.579Z,1012.3
2017-08-16T06:35:28.038Z,1012.2
2017-08-16T06:36:30.514Z,1012.2
2017-08-16T06:37:33.309Z,1012.2
2017-08-16T06:38:35.783Z,1012.2
2017-08-16T06:39:38.582Z,1012.1
2017-08-16T06:40:41.394Z,1012.2
2017-08-16T06:41:44.192Z,1012.2
2017-08-16T06:42:46.652Z,1012.2
2017-08-16T06:43:49.120Z,1012.3
2017-08-16T06:44:51.912Z,1012.3
2017-08-16T06:45:54.367Z,1012.2
2017-08-16T06:46:57.166Z,1012.2
2017-08-16T06:48:00.639Z,1012.2
2017-08-16T06:49:03.805Z,1012.2
2017-08-16T06:50:07.959Z,1012.2
2017-08-16T06:51:10.415Z,1012.2
2017-08-16T06:52:12.877Z,1012.2
2017-08-16T06:53:15.325Z,1012.3
2017-08-16T06:54:17.787Z,1012.3
2017-08-16T06:55:20.244Z,1012.3
2017-08-16T06:56:22.695Z,1012.4
2017-08-16T06:57:25.141Z,1012.4
2017-08-16T06:58:28.012Z,1012.5
2017-08-16T06:59:30.454Z,1012.5
2017-08-16T07:00:32.920Z,1012.5
2017-08-16T07:01:35.726Z,1012.4
2017-08-16T07:02:38.523Z,1012.5
2017-08-16T07:03:40.986Z,1012.5
2017-08-16T07:04:43.783Z,1012.5
2017-08-16T07:05:46.909Z,1012.5
2017-08-16T07:06:49.730Z,1012.5
2017-08-16T07:07:52.170Z,1012.5
2017-08-16T07:08:54.997Z,1012.5
2017-08-16T07:09:57.452Z,1012.5
2017-08-16T07:11:00.254Z,1012.5
2017-08-16T07:12:03.051Z,1012.5
2017-08-16T07:13:06.181Z,1012.5
2017-08-16T07:14:08.966Z,1012.6
2017-08-16T07:15:12.125Z,1012.5
2017-08-16T07:16:14.578Z,1012.6
2017-08-16T07:17:17.044Z,1012.6
2017-08-16T07:18:20.539Z,1012.6
2017-08-16T07:19:23.705Z,1012.6
2017-08-16T07:20:26.491Z,1012.6
2017-08-16T07:21:29.328Z,1012.6
2017-08-16T07:22:32.110Z,1012.6
2017-08-16T07:23:34.571Z,1012.7
2017-08-16T07:24:37.029Z,1012.7
2017-08-16T07:25:39.870Z,1012.6
2017-08-16T07:26:43.027Z,1012.7
2017-08-16T07:27:45.498Z,1012.6
2017-08-16T07:28:47.940Z,1012.6
2017-08-16T07:29:50.442Z,1012.7
2017-08-16T07:30:52.906Z,1012.7
2017-08-16T07:31:55.355Z,1012.7
2017-08-16T07:32:57.814Z,1012.7
2017-08-16T07:34:00.272Z,1012.7
2017-08-16T07:35:03.749Z,1012.7
2017-08-16T07:36:06.223Z,1012.7
2017-08-16T07:37:08.670Z,1012.7
2017-08-16T07:38:11.137Z,1012.8
2017-08-16T07:39:13.927Z,1012.7
2017-08-16T07:40:16.378Z,1012.7
2017-08-16T07:41:18.858Z,1012.7
2017-08-16T07:42:21.666Z,1012.7
2017-08-16T07:43:24.135Z,1012.7
2017-08-16T07:44:26.931Z,1012.7
2017-08-16T07:45:29.730Z,1012.7
2017-08-16T07:46:32.535Z,1012.7
2017-08-16T07:47:35.001Z,1012.7
2017-08-16T07:48:37.446Z,1012.7
2017-08-16T07:49:40.266Z,1012.7
2017-08-16T07:50:43.054Z,1012.7
2017-08-16T07:51:45.519Z,1012.7
2017-08-16T07:52:48.669Z,1012.7
2017-08-16T07:53:51.115Z,1012.8
2017-08-16T07:54:53.578Z,1012.8
2017-08-16T07:55:56.387Z,1012.8
2017-08-16T07:56:59.185Z,1012.8
2017-08-16T07:58:02.321Z,1012.8
2017-08-16T07:59:04.797Z,1012.8
2017-08-16T08:00:07.284Z,1012.8
2017-08-16T08:01:10.090Z,1012.8
2017-08-16T08:02:12.557Z,1012.8
2017-08-16T08:03:14.997Z,1012.8
2017-08-16T08:04:17.797Z,1012.8
2017-08-16T08:05:20.248Z,1012.8
2017-08-16T08:06:22.725Z,1012.9
2017-08-16T08:07:25.179Z,1012.8
2017-08-16T08:08:27.630Z,1012.9
2017-08-16T08:09:30.437Z,1012.9
2017-08-16T08:10:33.252Z,1012.9
2017-08-16T08:11:35.705Z,1012.9
2017-08-16T08:12:38.194Z,1012.9
2017-08-16T08:13:40.651Z,1012.9
2017-08-16T08:14:43.458Z,1012.9
2017-08-16T08:15:46.609Z,1012.9
2017-08-16T08:16:49.074Z,1013
2017-08-16T08:17:51.540Z,1013
2017-08-16T08:18:54.016Z,1013
2017-08-16T08:19:56.475Z,1013
2017-08-16T08:20:58.947Z,1013
2017-08-16T08:22:01.417Z,1013
2017-08-16T08:23:04.903Z,1013.1
2017-08-16T08:24:07.367Z,1013
2017-08-16T08:25:09.835Z,1013
2017-08-16T08:26:12.295Z,1013.1
2017-08-16T08:27:14.771Z,1013.1
2017-08-16T08:28:17.230Z,1013.1
2017-08-16T08:29:20.032Z,1013.1
2017-08-16T08:30:23.190Z,1013.1
2017-08-16T08:31:25.997Z,1013.1
2017-08-16T08:32:28.461Z,1013.1
2017-08-16T08:33:30.935Z,1013
2017-08-16T08:34:33.384Z,1013.1
2017-08-16T08:35:35.850Z,1013.1
2017-08-16T08:36:39.007Z,1013.1
2017-08-16T08:37:41.817Z,1013.1
2017-08-16T08:38:44.295Z,1013.1
2017-08-16T08:39:46.751Z,1013.2
2017-08-16T08:40:49.555Z,1013.2
2017-08-16T08:41:52.023Z,1013.2
2017-08-16T08:42:54.484Z,1013.1
2017-08-16T08:43:57.272Z,1013.2
2017-08-16T08:44:59.751Z,1013.2
2017-08-16T08:46:02.902Z,1013.1
2017-08-16T08:47:05.711Z,1013.2
2017-08-16T08:48:08.501Z,1013.2
2017-08-16T08:49:11.322Z,1013.2
2017-08-16T08:50:13.788Z,1013.2
2017-08-16T08:51:16.260Z,1013.2
2017-08-16T08:52:18.718Z,1013.2
2017-08-16T08:53:21.182Z,1013.2
2017-08-16T08:54:23.987Z,1013.3
2017-08-16T08:55:26.798Z,1013.3
2017-08-16T08:56:29.264Z,1013.3
2017-08-16T08:57:32.071Z,1013.3
2017-08-16T08:58:34.525Z,1013.3
2017-08-16T08:59:37.000Z,1013.3
2017-08-16T09:00:39.470Z,1013.3
2017-08-16T09:01:42.309Z,1013.3
2017-08-16T09:02:44.763Z,1013.3
2017-08-16T09:03:47.257Z,1013.3
2017-08-16T09:04:49.729Z,1013.3
2017-08-16T09:05:52.191Z,1013.4
2017-08-16T09:06:54.654Z,1013.3
2017-08-16T09:07:57.449Z,1013.3
2017-08-16T09:08:59.915Z,1013.4
2017-08-16T09:10:02.403Z,1013.3
2017-08-16T09:11:05.553Z,1013.4
2017-08-16T09:12:08.361Z,1013.4
2017-08-16T09:13:10.838Z,1013.4
2017-08-16T09:14:13.306Z,1013.4
2017-08-16T09:15:15.778Z,1013.4
2017-08-16T09:16:18.241Z,1013.4
2017-08-16T09:17:20.713Z,1013.4
2017-08-16T09:18:23.539Z,1013.4
2017-08-16T09:19:26.032Z,1013.4
2017-08-16T09:20:28.841Z,1013.4
2017-08-16T09:21:31.669Z,1013.4
2017-08-16T09:22:34.131Z,1013.5
2017-08-16T09:23:36.597Z,1013.5
2017-08-16T09:24:39.409Z,1013.5
2017-08-16T09:25:41.876Z,1013.5
2017-08-16T09:26:45.017Z,1013.4
2017-08-16T09:27:47.512Z,1013.5
2017-08-16T09:28:50.315Z,1013.5
2017-08-16T09:29:53.116Z,1013.5
2017-08-16T09:30:55.627Z,1013.5
2017-08-16T09:31:58.419Z,1013.5
2017-08-16T09:33:00.898Z,1013.5
2017-08-16T09:34:03.774Z,1013.5
2017-08-16T09:35:06.961Z,1013.5
2017-08-16T09:36:09.416Z,1013.5
2017-08-16T09:37:11.878Z,1013.6
2017-08-16T09:38:14.350Z,1013.5
2017-08-16T09:39:17.497Z,1013.5
2017-08-16T09:40:19.976Z,1013.5
2017-08-16T09:41:22.442Z,1013.6
2017-08-16T09:42:25.246Z,1013.6
2017-08-16T09:43:27.726Z,1013.5
2017-08-16T09:44:30.193Z,1013.6
2017-08-16T09:45:32.986Z,1013.6
2017-08-16T09:46:35.461Z,1013.5
2017-08-16T09:47:37.929Z,1013.6
2017-08-16T09:48:40.736Z,1013.6
2017-08-16T09:49:43.895Z,1013.6
2017-08-16T09:50:46.697Z,1013.6
2017-08-16T09:51:49.503Z,1013.6
2017-08-16T09:52:51.988Z,1013.7
2017-08-16T09:53:54.791Z,1013.6
2017-08-16T09:54:57.255Z,1013.7
2017-08-16T09:55:59.705Z,1013.7
2017-08-16T09:57:02.504Z,1013.7
2017-08-16T09:58:04.984Z,1013.7
2017-08-16T09:59:07.446Z,1013.7
2017-08-16T10:00:10.243Z,1013.7
2017-08-16T10:01:12.712Z,1013.7
2017-08-16T10:02:15.180Z,1013.7
2017-08-16T10:03:17.663Z,1013.7
2017-08-16T10:04:20.817Z,1013.8
2017-08-16T10:05:23.279Z,1013.7
2017-08-16T10:06:25.751Z,1013.8
2017-08-16T10:07:28.223Z,1013.8
2017-08-16T10:08:30.684Z,1013.8
2017-08-16T10:09:33.518Z,1013.8
2017-08-16T10:10:36.336Z,1013.8
2017-08-16T10:11:38.790Z,1013.8
2017-08-16T10:12:41.605Z,1013.8
2017-08-16T10:13:44.401Z,1013.8
2017-08-16T10:14:47.206Z,1013.8
2017-08-16T10:15:50.017Z,1013.8
2017-08-16T10:16:52.470Z,1013.8
2017-08-16T10:17:54.928Z,1013.8
2017-08-16T10:18:58.426Z,1013.8
2017-08-16T10:20:00.879Z,1013.8
2017-08-16T10:21:04.023Z,1013.8
2017-08-16T10:22:06.874Z,1013.9
2017-08-16T10:23:09.335Z,1013.8
2017-08-16T10:24:11.838Z,1013.8
2017-08-16T10:25:14.303Z,1013.8
2017-08-16T10:26:16.756Z,1013.8
2017-08-16T10:27:19.586Z,1013.8
2017-08-16T10:28:22.728Z,1013.8
2017-08-16T10:29:25.195Z,1013.8
2017-08-16T10:30:28.014Z,1013.7
2017-08-16T10:31:30.466Z,1013.8
2017-08-16T10:32:33.603Z,1013.8
2017-08-16T10:33:36.419Z,1013.8
2017-08-16T10:34:39.219Z,1013.8
2017-08-16T10:35:41.696Z,1013.8
2017-08-16T10:36:44.494Z,1013.8
2017-08-16T10:37:47.633Z,1013.8
2017-08-16T10:38:50.433Z,1013.8
2017-08-16T10:39:52.895Z,1013.8
2017-08-16T10:40:55.357Z,1013.8
2017-08-16T10:41:57.817Z,1013.9
2017-08-16T10:43:00.283Z,1013.9
2017-08-16T10:44:02.760Z,1013.9
2017-08-16T10:45:05.215Z,1013.9
2017-08-16T10:46:07.676Z,1013.9
2017-08-16T10:47:10.133Z,1013.9
2017-08-16T10:48:12.606Z,1013.9
2017-08-16T10:49:15.071Z,1014
2017-08-16T10:50:17.535Z,1014
2017-08-16T10:51:19.988Z,1014
2017-08-16T10:52:22.444Z,1014
2017-08-16T10:53:24.905Z,1014
2017-08-16T10:54:27.376Z,1014
2017-08-16T10:55:30.177Z,1014
2017-08-16T10:56:32.638Z,1014
2017-08-16T10:57:35.099Z,1014
2017-08-16T10:58:37.569Z,1014
2017-08-16T10:59:40.024Z,1013.9
2017-08-16T11:00:42.840Z,1014
2017-08-16T11:01:45.315Z,1014
2017-08-16T11:02:47.783Z,1014
2017-08-16T11:03:50.922Z,1014
2017-08-16T11:04:53.722Z,1014
2017-08-16T11:05:56.176Z,1014
2017-08-16T11:06:59.013Z,1014
2017-08-16T11:08:01.838Z,1014
2017-08-16T11:09:04.651Z,1014
2017-08-16T11:10:07.458Z,1014
2017-08-16T11:11:09.921Z,1014
2017-08-16T11:12:12.413Z,1013.9
2017-08-16T11:13:14.889Z,1013.9
2017-08-16T11:14:17.357Z,1014
2017-08-16T11:15:19.825Z,1014
2017-08-16T11:16:22.268Z,1014
2017-08-16T11:17:24.743Z,1014
2017-08-16T11:18:27.215Z,1014
2017-08-16T11:19:30.019Z,1014
2017-08-16T11:20:32.485Z,1014
2017-08-16T11:21:35.631Z,1014
2017-08-16T11:22:38.092Z,1014
2017-08-16T11:23:40.908Z,1014
2017-08-16T11:24:43.737Z,1014
2017-08-16T11:25:46.205Z,1014
2017-08-16T11:26:48.676Z,1014
2017-08-16T11:27:51.478Z,1014
2017-08-16T11:28:53.952Z,1014
2017-08-16T11:29:56.426Z,1014
2017-08-16T11:30:58.885Z,1014
2017-08-16T11:32:02.020Z,1014
2017-08-16T11:33:04.833Z,1014
2017-08-16T11:34:07.630Z,1014
2017-08-16T11:35:10.101Z,1014
2017-08-16T11:36:12.932Z,1014
2017-08-16T11:37:15.395Z,1014
2017-08-16T11:38:17.860Z,1014
2017-08-16T11:39:20.333Z,1014
2017-08-16T11:40:22.814Z,1014
2017-08-16T11:41:25.281Z,1014
2017-08-16T11:42:28.414Z,1014
2017-08-16T11:43:30.875Z,1014
2017-08-16T11:44:33.682Z,1014
2017-08-16T11:45:36.832Z,1014
2017-08-16T11:46:39.301Z,1014
2017-08-16T11:47:41.759Z,1014
2017-08-16T11:48:44.582Z,1014.1
2017-08-16T11:49:47.728Z,1014.1
2017-08-16T11:50:51.201Z,1014.1
2017-08-16T11:51:54.031Z,1014.1
2017-08-16T11:52:56.504Z,1014.1
2017-08-16T11:53:59.691Z,1014.1
2017-08-16T11:55:02.522Z,1014.2
2017-08-16T11:56:05.006Z,1014.1
2017-08-16T11:57:07.472Z,1014.2
2017-08-16T11:58:09.947Z,1014.2
2017-08-16T11:59:12.740Z,1014.2
2017-08-16T12:00:15.543Z,1014.2
2017-08-16T12:01:18.368Z,1014.2
2017-08-16T12:02:21.513Z,1014.2
2017-08-16T12:03:23.980Z,1014.2
2017-08-16T12:04:26.825Z,1014.1
2017-08-16T12:05:29.295Z,1014.1
2017-08-16T12:06:31.769Z,1014.1
2017-08-16T12:07:34.223Z,1014.1
2017-08-16T12:08:36.694Z,1014.2
2017-08-16T12:09:39.164Z,1014.2
2017-08-16T12:10:42.010Z,1014.2
2017-08-16T12:11:44.476Z,1014.2
2017-08-16T12:12:47.291Z,1014.1
2017-08-16T12:13:50.804Z,1014.2
2017-08-16T12:14:53.271Z,1014.2
2017-08-16T12:15:55.740Z,1014.2
2017-08-16T12:16:58.574Z,1014.2
2017-08-16T12:18:01.391Z,1014.2
2017-08-16T12:19:04.196Z,1014.2
2017-08-16T12:20:06.681Z,1014.2
2017-08-16T12:21:09.150Z,1014.1
2017-08-16T12:22:11.615Z,1014.1
2017-08-16T12:23:14.448Z,1014.1
2017-08-16T12:24:17.259Z,1014.1
2017-08-16T12:25:20.062Z,1014.1
2017-08-16T12:26:22.536Z,1014.1
2017-08-16T12:27:25.000Z,1014.1
2017-08-16T12:28:27.474Z,1014
2017-08-16T12:29:29.949Z,1014
2017-08-16T12:30:32.442Z,1014.1
2017-08-16T12:31:35.273Z,1014
2017-08-16T12:32:37.735Z,1014.1
2017-08-16T12:33:40.250Z,1014.1
2017-08-16T12:34:43.075Z,1014.1
2017-08-16T12:35:45.566Z,1014.1
2017-08-16T12:36:48.362Z,1014.1
2017-08-16T12:37:51.194Z,1014.1
2017-08-16T12:38:53.665Z,1014.1
2017-08-16T12:39:56.151Z,1014.1
2017-08-16T12:40:58.960Z,1014
2017-08-16T12:42:02.102Z,1014.1
2017-08-16T12:43:05.257Z,1014
2017-08-16T12:44:07.729Z,1014.1
2017-08-16T12:45:10.197Z,1014.1
2017-08-16T12:46:12.663Z,1014.1
2017-08-16T12:47:15.447Z,1014.1
2017-08-16T12:48:18.288Z,1014.1
2017-08-16T12:49:20.744Z,1014.1
2017-08-16T12:50:23.219Z,1014.1
2017-08-16T12:51:25.706Z,1014.2
2017-08-16T12:52:28.173Z,1014.2
2017-08-16T12:53:30.678Z,1014.2
2017-08-16T12:54:33.492Z,1014.1
2017-08-16T12:55:35.992Z,1014.1
2017-08-16T12:56:38.499Z,1014.1
2017-08-16T12:57:41.652Z,1014.1
2017-08-16T12:58:44.449Z,1014.1
2017-08-16T12:59:46.924Z,1014
2017-08-16T13:00:49.404Z,1014
2017-08-16T13:01:52.196Z,1014
2017-08-16T13:02:55.012Z,1014
2017-08-16T13:03:58.187Z,1014
2017-08-16T13:05:01.007Z,1014
2017-08-16T13:06:04.517Z,1014.1
2017-08-16T13:07:07.346Z,1014
2017-08-16T13:08:09.819Z,1014
2017-08-16T13:09:12.638Z,1014